• Join FlightAware (Why Join?)
  • Login
  • US Flag 
02:35AM EDT


 

Airport Tracker/Info


-or-


 

Live Flight TrackerFlight Track Log ✈ BER9653 ✈ 20-Sep-2013 ✈ LEPA / PMI - EDSB / FKB

Flight Track Log - Related Links

Times and Time Zones

All times are in EDT time to prevent confusion due to time zone crossing. See the BER9653 flight status page for this flight to view local times or setup timezone preferences in your user account.

Time Position Orientation Groundspeed Altitude Reporting Facility
EDT Latitude Longitude Course Direction KTS MPH feet Rate Location/Type
03:42AM 39.5630 2.7770 60° Northeast 174 200 900  Level FlightAware
03:43AM 39.5720 2.7970 60° Northeast 202 232 1,400 1,320 Climbing FlightAware
03:43AM 39.5820 2.8190 59° Northeast 230 265 1,800 1,800 Climbing FlightAware
03:44AM 39.5990 2.8580 60° Northeast 259 298 2,900 2,520 Climbing FlightAware
03:44AM 39.6080 2.8790 61° Northeast 258 297 3,700 3,600 Climbing FlightAware
03:44AM 39.6210 2.9050 57° Northeast 256 295 5,000 3,300 Climbing FlightAware
03:45AM 39.6370 2.9390 59° Northeast 268 308 6,200 2,820 Climbing FlightAware
03:45AM 39.6460 2.9610 62° Northeast 273 314 6,900 2,700 Climbing FlightAware
03:45AM 39.6580 2.9900 62° Northeast 277 319 7,800 2,820 Climbing FlightAware
03:45AM 39.6710 3.0200 61° Northeast 284 327 8,800 2,880 Climbing FlightAware
03:46AM 39.6810 3.0430 61° Northeast 291 335 9,500 2,040 Climbing FlightAware
03:46AM 39.7080 3.1060 61° Northeast 316 364 10,700 1,680 Climbing FlightAware
03:47AM 39.7390 3.1780 61° Northeast 351 404 11,800 2,040 Climbing FlightAware
03:48AM 39.7680 3.2450 61° Northeast 360 414 13,300 2,640 Climbing FlightAware
03:48AM 39.7990 3.2970 52° Northeast 365 420 14,700 2,520 Climbing FlightAware
03:49AM 39.8430 3.3650 50° Northeast 374 430 16,300 2,220 Climbing FlightAware
03:49AM 39.8840 3.4250 48° Northeast 379 436 17,500 2,040 Climbing FlightAware
03:50AM 39.9260 3.4870 49° Northeast 394 453 18,700 2,040 Climbing FlightAware
03:51AM 39.9680 3.5510 49° Northeast 398 458 19,900 1,920 Climbing FlightAware
03:51AM 40.0100 3.6160 50° Northeast 404 465 21,000 2,040 Climbing FlightAware
03:52AM 40.0540 3.6820 49° Northeast 407 468 22,300 1,800 Climbing FlightAware
03:52AM 40.0980 3.7490 49° Northeast 424 488 23,100 1,440 Climbing FlightAware
03:53AM 40.1430 3.8180 50° Northeast 429 494 24,000 1,500 Climbing FlightAware
03:53AM 40.1890 3.8870 49° Northeast 435 501 24,900 1,620 Climbing FlightAware
03:54AM 40.2400 3.9530 45° Northeast 438 504 25,900 1,560 Climbing FlightAware
03:54AM 40.2850 3.9930 34° Northeast 447 514 26,500 1,320 Climbing FlightAware
03:55AM 40.3430 4.0370 30° Northeast 451 519 27,200 1,320 Climbing FlightAware
03:56AM 40.4060 4.0840 30° Northeast 456 525 28,000 1,440 Climbing FlightAware
03:56AM 40.4710 4.1340 30° Northeast 457 526 28,900 1,440 Climbing FlightAware
03:57AM 40.5380 4.1860 31° Northeast 450 518 29,800 1,560 Climbing FlightAware
03:57AM 40.5920 4.2260 29° Northeast 450 518 30,700 1,680 Climbing FlightAware
03:58AM 40.6650 4.2820 30° Northeast 445 512 31,800 1,500 Climbing FlightAware
03:58AM 40.7180 4.3230 30° Northeast 435 501 32,500 1,260 Climbing FlightAware
03:59AM 40.7790 4.3700 30° Northeast 435 501 33,200 1,200 Climbing FlightAware
04:00AM 40.8390 4.4160 30° Northeast 435 501 33,900 720 Climbing FlightAware
04:00AM 40.9010 4.4570 27° Northeast 444 511 34,000 60 Climbing FlightAware
04:01AM 40.9720 4.4800 14° North 442 509 34,000  Level FlightAware
04:01AM 41.0390 4.4960 10° North 445 512 34,000  Level FlightAware
04:02AM 41.1080 4.5130 11° North 447 514 34,000  Level FlightAware
04:02AM 41.1840 4.5310 10° North 449 517 34,000  Level FlightAware
04:03AM 41.2640 4.5510 11° North 450 518 34,000  Level FlightAware
04:04AM 41.3360 4.5680 10° North 451 519 34,000  Level FlightAware
04:04AM 41.4310 4.5920 11° North 449 517 34,000  Level FlightAware
04:05AM 41.4960 4.6070 10° North 447 514 34,000  Level FlightAware
04:06AM 41.5720 4.6270 11° North 446 513 34,000  Level FlightAware
04:06AM 41.6460 4.6450 10° North 449 517 34,000  Level FlightAware
04:07AM 41.7120 4.6610 10° North 451 519 34,000  Level FlightAware
04:07AM 41.7830 4.6950 20° North 456 525 34,000  Level FlightAware
04:08AM 41.8320 4.7220 22° Northeast 456 525 34,000  Level FlightAware
04:09AM 41.9150 4.7710 24° Northeast 458 527 34,000  Level FlightAware
04:09AM 41.9870 4.8120 23° Northeast 458 527 34,000  Level FlightAware
04:10AM 42.0660 4.8590 24° Northeast 457 526 34,000  Level FlightAware
04:10AM 42.1250 4.8920 23° Northeast 457 526 34,000  Level FlightAware
04:11AM 42.1970 4.9340 23° Northeast 457 526 34,000  Level FlightAware
04:12AM 42.2790 4.9820 23° Northeast 457 526 34,000  Level FlightAware
04:13AM 42.3840 5.0440 24° Northeast 458 527 34,000  Level FlightAware
04:13AM 42.4270 5.0740 27° Northeast 459 528 34,000  Level FlightAware
04:14AM 42.4950 5.1330 33° Northeast 459 528 34,000  Level FlightAware
04:14AM 42.5830 5.2110 33° Northeast 458 527 34,000  Level FlightAware
04:15AM 42.6650 5.2850 34° Northeast 458 527 34,000  Level FlightAware
04:16AM 42.7150 5.3300 33° Northeast 458 527 34,000  Level FlightAware
04:17AM 42.8170 5.3960 25° Northeast 451 519 34,000  Level FlightAware
04:17AM 42.8750 5.4360 27° Northeast 449 517 34,000  Level FlightAware
04:18AM 42.9400 5.4820 27° Northeast 449 517 34,000  Level FlightAware
04:18AM 42.9950 5.5360 36° Northeast 453 521 34,000  Level FlightAware
04:19AM 43.0470 5.6000 42° Northeast 454 522 34,000  Level FlightAware
04:19AM 43.1010 5.6680 43° Northeast 455 524 34,000  Level FlightAware
04:20AM 43.1590 5.7400 42° Northeast 457 526 34,000  Level FlightAware
04:20AM 43.2140 5.8110 43° Northeast 458 527 34,000  Level FlightAware
04:21AM 43.2670 5.8760 42° Northeast 459 528 34,000  Level FlightAware
04:22AM 43.3180 5.9420 43° Northeast 462 532 34,000  Level FlightAware
04:22AM 43.3770 6.0130 41° Northeast 460 529 34,000  Level FlightAware
04:22AM 43.4070 6.0340 27° Northeast 456 525 34,000  Level FlightAware
04:23AM 43.4530 6.0460 11° North 451 519 34,000  Level FlightAware
04:23AM 43.5200 6.0530 North 450 518 34,000  Level FlightAware
04:24AM 43.5880 6.0600 North 450 518 34,000  Level FlightAware
04:25AM 43.6660 6.0680 North 450 518 34,000  Level FlightAware
04:25AM 43.7400 6.0760 North 450 518 34,000  Level FlightAware
04:26AM 43.7950 6.0960 15° North 457 526 34,000  Level FlightAware
04:26AM 43.8660 6.1420 25° Northeast 460 529 34,000  Level FlightAware
04:27AM 43.9230 6.1810 26° Northeast 459 528 34,000  Level FlightAware
04:27AM 43.9960 6.2300 26° Northeast 459 528 34,000  Level FlightAware
04:28AM 44.0650 6.2790 27° Northeast 459 528 34,000  Level FlightAware
04:28AM 44.1210 6.3170 26° Northeast 461 531 34,000  Level FlightAware
04:29AM 44.1970 6.3700 27° Northeast 461 531 34,000  Level FlightAware
04:30AM 44.2670 6.4170 26° Northeast 461 531 34,000  Level FlightAware
04:30AM 44.3350 6.4650 27° Northeast 461 531 34,000  Level FlightAware
04:31AM 44.3960 6.5070 26° Northeast 460 529 34,000  Level FlightAware
04:31AM 44.4630 6.5540 27° Northeast 460 529 34,000  Level FlightAware
04:32AM 44.5350 6.6040 26° Northeast 460 529 34,000  Level FlightAware
04:33AM 44.5950 6.6450 26° Northeast 460 529 34,000  Level FlightAware
04:33AM 44.6690 6.6980 27° Northeast 460 529 34,000  Level FlightAware
04:34AM 44.7330 6.7430 27° Northeast 459 528 34,000  Level FlightAware
04:34AM 44.7960 6.7800 23° Northeast 451 519 34,000  Level FlightAware
04:35AM 44.8290 6.7870 North 444 511 34,000  Level FlightAware
04:35AM 44.8860 6.7850 359° North 437 503 34,000  Level FlightAware
04:36AM 44.9530 6.7810 358° North 436 502 34,000  Level FlightAware
04:36AM 45.0250 6.7760 357° North 436 502 34,000  Level FlightAware
04:37AM 45.0910 6.7720 358° North 435 501 34,000  Level FlightAware
04:37AM 45.1690 6.7660 357° North 435 501 34,000  Level FlightAware
04:38AM 45.2420 6.7610 357° North 432 497 34,000  Level FlightAware
04:39AM 45.3070 6.7570 358° North 432 497 34,000  Level FlightAware
04:39AM 45.3770 6.7520 357° North 430 495 34,000  Level FlightAware
04:40AM 45.4490 6.7470 357° North 428 493 34,000  Level FlightAware
04:40AM 45.5090 6.7430 357° North 427 491 34,000  Level FlightAware
04:41AM 45.5850 6.7380 357° North 426 490 34,000  Level FlightAware
04:41AM 45.6550 6.7340 358° North 427 491 34,000  Level FlightAware
04:42AM 45.7220 6.7290 357° North 431 496 34,000  Level FlightAware
04:43AM 45.7950 6.7240 357° North 437 503 34,000  Level FlightAware
04:43AM 45.8670 6.7190 357° North 443 510 34,000  Level FlightAware
04:44AM 45.9320 6.7150 358° North 443 510 34,000  Level FlightAware
04:44AM 46.0100 6.7090 357° North 443 510 34,000  Level FlightAware
04:45AM 46.0820 6.7040 357° North 443 510 34,000  Level FlightAware
04:46AM 46.1450 6.7000 357° North 443 510 34,000  Level FlightAware
04:46AM 46.2230 6.6950 357° North 447 514 34,000  Level FlightAware
04:47AM 46.2950 6.6900 357° North 446 513 34,000  Level FlightAware
04:47AM 46.3630 6.6850 357° North 446 513 34,000 -180 Level FlightAware
04:48AM 46.4280 6.6930 North 454 522 33,800 -720 Descending FlightAware
04:48AM 46.4650 6.7220 28° Northeast 463 533 33,400 -1,380 Descending FlightAware
04:48AM 46.4820 6.7460 44° Northeast 467 537 33,200 -1,140 Descending FlightAware
04:49AM 46.5310 6.8330 51° Northeast 463 533 32,500 -1,260 Descending FlightAware
04:50AM 46.5790 6.9210 52° Northeast 465 535 31,700 -1,500 Descending FlightAware
04:50AM 46.6290 7.0110 51° Northeast 468 539 30,700 -1,620 Descending FlightAware
04:51AM 46.6730 7.0890 51° Northeast 465 535 29,900 -1,500 Descending FlightAware
04:51AM 46.7200 7.1740 51° Northeast 463 533 29,000 -1,560 Descending FlightAware
04:52AM 46.7670 7.2630 52° Northeast 468 539 28,100 -1,560 Descending FlightAware
04:52AM 46.8000 7.3170 48° Northeast 464 534 27,500 -1,260 Descending FlightAware
04:53AM 46.8530 7.3690 34° Northeast 447 514 27,000 -1,620 Descending FlightAware
04:53AM 46.9140 7.4300 34° Northeast 432 497 25,700 -1,680 Descending FlightAware
04:54AM 46.9740 7.4870 33° Northeast 425 489 25,000 -600 Descending FlightAware
04:55AM 47.0300 7.5410 33° Northeast 424 488 25,000  Level FlightAware
04:55AM 47.0930 7.6020 33° Northeast 425 489 25,000  Level FlightAware
04:56AM 47.1460 7.6540 34° Northeast 424 488 25,000  Level FlightAware
04:56AM 47.2080 7.7070 30° Northeast 418 481 25,000  Level FlightAware
04:57AM 47.2440 7.7220 16° North 414 476 25,000  Level FlightAware
04:57AM 47.3090 7.7390 10° North 411 473 25,000  Level FlightAware
04:58AM 47.3790 7.7550 North 410 472 25,000 -120 Level FlightAware
04:58AM 47.4470 7.7710 North 405 466 24,900 -1,380 Descending FlightAware
04:59AM 47.5030 7.7840 North 405 466 23,500 -2,340 Descending FlightAware
05:00AM 47.5720 7.8000 North 399 459 22,300 -1,260 Descending FlightAware
05:00AM 47.6390 7.8160 North 406 467 22,000 -300 Descending FlightAware
05:01AM 47.7020 7.8310 North 410 472 22,000 -600 Level FlightAware
05:01AM 47.7600 7.8450 North 406 467 21,400 -1,740 Descending FlightAware
05:02AM 47.8290 7.8610 North 393 452 20,000 -2,220 Descending FlightAware
05:03AM 47.8930 7.8750 North 375 432 18,600 -2,640 Descending FlightAware
05:03AM 47.9520 7.8890 North 370 426 16,900 -2,880 Descending FlightAware
05:04AM 48.0080 7.9040 10° North 362 417 15,300 -2,820 Descending FlightAware
05:04AM 48.0680 7.9180 North 350 403 13,700 -2,760 Descending FlightAware
05:05AM 48.1260 7.9330 10° North 342 394 12,000 -2,520 Descending FlightAware
05:06AM 48.1870 7.9480 North 326 375 10,600 -1,920 Descending FlightAware
05:06AM 48.2290 7.9610 12° North 309 356 9,800 -1,800 Descending FlightAware
05:07AM 48.2690 7.9760 14° North 303 349 8,800 -2,100 Descending FlightAware
05:07AM 48.2960 7.9870 15° North 303 349 8,100 -2,100 Descending FlightAware
05:07AM 48.3240 7.9980 15° North 301 346 7,400 -2,220 Descending FlightAware
05:08AM 48.3510 8.0080 14° North 299 344 6,600 -2,100 Descending FlightAware
05:08AM 48.3780 8.0190 15° North 286 329 6,000 -1,800 Descending FlightAware
05:08AM 48.4040 8.0290 14° North 283 326 5,400 -900 Descending FlightAware
05:09AM 48.4290 8.0390 15° North 268 308 5,400  Level FlightAware
05:09AM 48.4540 8.0500 16° North 265 305 5,400  Level FlightAware
05:09AM 48.4830 8.0620 15° North 264 304 5,400  Level FlightAware
05:10AM 48.5080 8.0720 15° North 271 312 5,400  Level FlightAware
05:10AM 48.5320 8.0870 22° Northeast 266 306 5,400  Level FlightAware
05:10AM 48.5550 8.1040 26° Northeast 267 307 5,400  Level FlightAware
05:11AM 48.5770 8.1190 24° Northeast 267 307 5,400  Level FlightAware
05:11AM 48.6060 8.1400 26° Northeast 273 314 5,400  Level FlightAware
05:11AM 48.6310 8.1570 24° Northeast 273 314 5,400  Level FlightAware
05:12AM 48.6530 8.1730 26° Northeast 268 308 5,400  Level FlightAware
05:12AM 48.6760 8.1880 23° Northeast 267 307 5,400  Level FlightAware
05:12AM 48.6990 8.2050 26° Northeast 267 307 5,400  Level FlightAware
05:13AM 48.7340 8.2300 25° Northeast 265 305 5,400  Level FlightAware
05:13AM 48.7550 8.2450 25° Northeast 265 305 5,400  Level FlightAware
05:14AM 48.7830 8.2640 24° Northeast 266 306 5,400  Level FlightAware
05:14AM 48.8070 8.2820 26° Northeast 265 305 5,400  Level FlightAware
05:14AM 48.8310 8.2980 24° Northeast 264 304 5,400  Level FlightAware
05:15AM 48.8590 8.3170 24° Northeast 271 312 5,400  Level FlightAware
05:15AM 48.8840 8.3350 25° Northeast 270 311 5,400  Level FlightAware
05:15AM 48.9070 8.3510 25° Northeast 269 310 5,400  Level FlightAware
05:16AM 48.9340 8.3700 25° Northeast 269 310 5,400  Level FlightAware
05:16AM 48.9570 8.3860 25° Northeast 269 310 5,400 -420 Level FlightAware
05:16AM 48.9690 8.3930 21° North 266 306 5,200 -1,620 Descending FlightAware
05:16AM 48.9750 8.3940 North 256 295 5,000 -1,680 Descending FlightAware
05:17AM 48.9970 8.3850 345° North 255 293 4,500 -1,440 Descending FlightAware
05:17AM 49.0050 8.3730 315° West 245 282 4,300 -1,620 Descending FlightAware
05:17AM 49.0090 8.3660 311° West 243 280 4,100 -1,200 Descending FlightAware
05:17AM 49.0140 8.3430 288° West 240 276 3,900 -360 Descending FlightAware
05:18AM 49.0060 8.3120 249° West 223 257 3,900  Level FlightAware
05:18AM 48.9930 8.2890 229° Southwest 214 246 3,900  Level FlightAware
05:18AM 48.9780 8.2690 221° Southwest 201 231 3,900  Level FlightAware
05:19AM 48.9650 8.2550 215° Southwest 180 207 3,900  Level FlightAware
05:19AM 48.9520 8.2430 211° Southwest 175 201 3,900 -180 Level FlightAware
05:19AM 48.9410 8.2320 213° Southwest 173 199 3,800 -720 Descending FlightAware
05:20AM 48.9220 8.2150 210° Southwest 168 193 3,400 -960 Descending FlightAware
05:20AM 48.9090 8.2030 211° Southwest 154 177 3,100 -900 Descending FlightAware
05:20AM 48.8980 8.1920 213° Southwest 135 155 2,800 -780 Descending FlightAware
05:21AM 48.8870 8.1820 211° Southwest 137 158 2,600 -780 Descending FlightAware
05:21AM 48.8770 8.1720 213° Southwest 136 157 2,300 -780 Descending FlightAware
05:21AM 48.8650 8.1610 211° Southwest 135 155 2,100 -720 Descending FlightAware
05:21AM 48.8570 8.1540 210° Southwest 134 154 1,900 -720 Descending FlightAware
05:22AM 48.8420 8.1400 212° Southwest 132 152 1,600 -720 Descending FlightAware
05:22AM 48.8310 8.1290 213° Southwest 134 154 1,300 -840 Descending FlightAware
05:23AM 48.8230 8.1210 213° Southwest 134 154 1,100 -720 Descending FlightAware
05:23AM 48.8130 8.1120 211° Southwest 135 155 900 -780 Descending FlightAware
05:23AM 48.7960 8.0960 212° Southwest 135 155 500 -540 Descending FlightAware
05:24AM 48.7820 8.0830 211° Southwest 135 155 400 -240 Descending FlightAware
05:26AM 48.7794 8.0805 212° Southwest  Level Estimated
05:27AM 48.7794 8.0805 North  Level Estimated
05:28AM 48.7794 8.0805 North  Level Estimated
05:29AM 48.7794 8.0805 North  Level Estimated
05:30AM 48.7794 8.0805 North  Level Estimated
05:31AM 48.7794 8.0805 North  Level Estimated
05:32AM 48.7794 8.0805 North  Level Estimated
05:33AM 48.7794 8.0805 North  Level Estimated
05:34AM 48.7794 8.0805 North  Level Estimated
05:35AM 48.7794 8.0805 North  Level Estimated